createdAt,value
2023-03-03T00:00:53.402Z,91.95
2023-03-03T00:03:23.441Z,91.77
2023-03-03T00:05:53.366Z,92.90
2023-03-03T00:08:21.913Z,92.15
2023-03-03T00:10:49.599Z,89.97
2023-03-03T00:13:19.316Z,91.19
2023-03-03T00:15:47.743Z,93.17
2023-03-03T00:18:23.662Z,92.37
2023-03-03T00:20:55.150Z,89.20
2023-03-03T00:23:30.846Z,91.62
2023-03-03T00:25:59.450Z,91.68
2023-03-03T00:28:30.732Z,86.74
2023-03-03T00:31:00.023Z,85.17
2023-03-03T00:33:32.611Z,86.36
2023-03-03T00:36:31.624Z,88.17
2023-03-03T00:39:12.881Z,89.82
2023-03-03T00:41:40.963Z,91.26
2023-03-03T00:44:34.287Z,90.15
2023-03-03T00:47:13.507Z,88.54
2023-03-03T00:49:41.566Z,90.35
2023-03-03T00:52:17.185Z,88.80
2023-03-03T00:54:44.797Z,91.47
2023-03-03T00:57:13.610Z,92.65
2023-03-03T00:59:41.350Z,91.63
2023-03-03T01:02:08.854Z,94.69
2023-03-03T01:04:36.367Z,89.64
2023-03-03T01:07:04.246Z,85.30
2023-03-03T01:09:33.108Z,84.09
2023-03-03T01:12:00.795Z,84.27
2023-03-03T01:14:28.354Z,88.65
2023-03-03T01:16:55.911Z,88.17
2023-03-03T01:19:23.363Z,88.40
2023-03-03T01:21:52.258Z,90.66
2023-03-03T01:24:19.795Z,92.88
2023-03-03T01:26:48.629Z,92.32
2023-03-03T01:29:16.100Z,90.81
2023-03-03T01:31:43.603Z,88.83
2023-03-03T01:34:11.111Z,87.85
2023-03-03T01:36:38.664Z,87.34
2023-03-03T01:39:06.163Z,86.99
2023-03-03T01:41:34.253Z,87.87
2023-03-03T01:44:03.054Z,85.41
2023-03-03T01:46:46.178Z,85.79
2023-03-03T01:49:16.908Z,86.00
2023-03-03T01:51:50.062Z,86.19
2023-03-03T01:54:23.080Z,86.70
2023-03-03T01:56:52.911Z,87.59
2023-03-03T01:59:26.800Z,88.27
2023-03-03T02:01:54.625Z,87.31
2023-03-03T02:04:22.435Z,87.33
2023-03-03T02:06:55.662Z,89.04
2023-03-03T02:09:29.074Z,86.37
2023-03-03T02:12:00.951Z,88.14
2023-03-03T02:14:29.898Z,89.10
2023-03-03T02:16:58.081Z,87.82
2023-03-03T02:19:33.940Z,87.01
2023-03-03T02:22:03.143Z,86.94
2023-03-03T02:24:35.878Z,87.71
2023-03-03T02:27:04.881Z,88.13
2023-03-03T02:29:32.310Z,88.73
2023-03-03T02:31:59.989Z,87.73
2023-03-03T02:34:27.504Z,87.17
2023-03-03T02:36:55.074Z,89.67
2023-03-03T02:39:24.729Z,86.87
2023-03-03T02:41:56.669Z,89.29
2023-03-03T02:44:27.202Z,87.56
2023-03-03T02:46:56.104Z,85.90
2023-03-03T02:49:24.891Z,86.87
2023-03-03T02:51:52.455Z,85.97
2023-03-03T02:54:21.934Z,87.51
2023-03-03T02:56:49.819Z,87.53
2023-03-03T02:59:18.206Z,88.43
2023-03-03T03:01:47.989Z,87.67
2023-03-03T03:04:17.373Z,86.59
2023-03-03T03:06:45.937Z,86.44
2023-03-03T03:09:14.433Z,87.55
2023-03-03T03:11:42.772Z,88.59
2023-03-03T03:14:12.370Z,90.25
2023-03-03T03:16:40.514Z,89.35
2023-03-03T03:19:09.726Z,88.96
2023-03-03T03:21:37.286Z,89.41
2023-03-03T03:24:05.057Z,90.10
2023-03-03T03:26:32.487Z,90.71
2023-03-03T03:29:00.013Z,91.04
2023-03-03T03:31:27.485Z,90.72
2023-03-03T03:33:54.961Z,91.09
2023-03-03T03:36:23.839Z,89.79
2023-03-03T03:38:52.404Z,91.24
2023-03-03T03:41:19.876Z,90.18
2023-03-03T03:43:48.059Z,87.68
2023-03-03T03:46:15.628Z,86.78
2023-03-03T03:48:43.092Z,86.25
2023-03-03T03:51:11.954Z,86.34
2023-03-03T03:53:40.766Z,87.05
2023-03-03T03:56:08.989Z,86.87
2023-03-03T03:58:36.438Z,87.72
2023-03-03T04:01:05.279Z,89.26
2023-03-03T04:03:32.830Z,87.25
2023-03-03T04:06:00.392Z,89.12
2023-03-03T04:08:27.937Z,89.39
2023-03-03T04:10:56.788Z,89.94
2023-03-03T04:13:24.366Z,87.85
2023-03-03T04:15:51.882Z,86.11
2023-03-03T04:18:19.312Z,86.12
2023-03-03T04:20:46.943Z,88.03
2023-03-03T04:23:14.803Z,89.99
2023-03-03T04:25:42.330Z,92.53
2023-03-03T04:28:11.065Z,93.94
2023-03-03T04:30:38.517Z,92.89
2023-03-03T04:33:05.949Z,91.79
2023-03-03T04:35:33.421Z,89.73
2023-03-03T04:38:01.146Z,92.84
2023-03-03T04:40:28.881Z,93.13
2023-03-03T04:42:56.439Z,93.03
2023-03-03T04:45:25.190Z,92.26
2023-03-03T04:47:52.712Z,93.51
2023-03-03T04:50:20.835Z,90.09
2023-03-03T04:52:48.372Z,89.27
2023-03-03T04:55:16.714Z,91.46
2023-03-03T04:57:44.373Z,90.96
2023-03-03T05:00:14.038Z,91.49
2023-03-03T05:02:43.424Z,90.38
2023-03-03T05:05:11.633Z,89.90
2023-03-03T05:07:39.066Z,93.23
2023-03-03T05:10:07.929Z,95.66
2023-03-03T05:12:35.422Z,94.72
2023-03-03T05:15:02.896Z,93.07
2023-03-03T05:17:30.417Z,92.83
2023-03-03T05:19:59.251Z,90.98
2023-03-03T05:22:26.847Z,94.78
2023-03-03T05:24:54.263Z,93.62
2023-03-03T05:27:21.784Z,91.14
2023-03-03T05:29:49.289Z,89.24
2023-03-03T05:32:16.953Z,88.51
2023-03-03T05:34:44.504Z,87.53
2023-03-03T05:37:13.396Z,87.36
2023-03-03T05:39:40.982Z,90.84
2023-03-03T05:42:08.453Z,93.76
2023-03-03T05:44:35.934Z,96.15
2023-03-03T05:47:03.478Z,97.30
2023-03-03T05:49:30.938Z,99.98
2023-03-03T05:51:59.263Z,100.00
2023-03-03T05:54:28.106Z,100.00
2023-03-03T05:56:57.302Z,99.25
2023-03-03T05:59:25.310Z,93.78
2023-03-03T06:01:52.925Z,90.58
2023-03-03T06:04:20.411Z,91.30
2023-03-03T06:06:47.863Z,88.77
2023-03-03T06:09:15.696Z,88.74
2023-03-03T06:11:44.463Z,89.18
2023-03-03T06:14:11.937Z,92.12
2023-03-03T06:16:39.502Z,93.36
2023-03-03T06:19:07.086Z,93.74
2023-03-03T06:21:34.519Z,93.58
2023-03-03T06:24:02.024Z,93.28
2023-03-03T06:26:29.730Z,94.52
2023-03-03T06:28:58.558Z,96.05
2023-03-03T06:31:26.124Z,95.25
2023-03-03T06:33:53.706Z,97.99
2023-03-03T06:36:21.801Z,99.20
2023-03-03T06:38:49.253Z,98.47
2023-03-03T06:41:16.731Z,94.73
2023-03-03T06:43:44.219Z,92.68
2023-03-03T06:46:13.025Z,93.42
2023-03-03T06:48:40.781Z,95.22
2023-03-03T06:51:21.520Z,95.51
2023-03-03T06:53:50.000Z,95.98
2023-03-03T06:56:18.616Z,95.08
2023-03-03T06:58:46.168Z,94.11
2023-03-03T07:01:18.251Z,94.45
2023-03-03T07:03:46.635Z,96.88
2023-03-03T07:06:23.379Z,97.75
2023-03-03T07:08:51.147Z,97.43
2023-03-03T07:11:20.533Z,94.08
2023-03-03T07:13:50.094Z,92.24
2023-03-03T07:16:20.758Z,88.63
2023-03-03T07:18:52.058Z,89.45
2023-03-03T07:21:21.777Z,87.93
2023-03-03T07:23:51.013Z,90.28
2023-03-03T07:26:22.651Z,89.45
2023-03-03T07:28:54.739Z,90.79
2023-03-03T07:31:40.227Z,92.23
2023-03-03T07:34:20.855Z,93.46
2023-03-03T07:36:49.657Z,93.51
2023-03-03T07:39:29.339Z,92.34
2023-03-03T07:42:03.838Z,94.46
2023-03-03T07:44:36.002Z,95.53
2023-03-03T07:47:16.541Z,96.29
2023-03-03T07:49:44.012Z,96.61
2023-03-03T07:52:25.570Z,98.50
2023-03-03T07:54:54.269Z,96.83
2023-03-03T07:57:25.933Z,94.75
2023-03-03T07:59:55.838Z,93.35
2023-03-03T08:02:55.332Z,91.96
2023-03-03T08:05:31.296Z,92.16
2023-03-03T08:08:16.134Z,91.78
2023-03-03T08:10:47.770Z,91.20
2023-03-03T08:13:19.862Z,92.00
2023-03-03T08:15:49.944Z,91.74
2023-03-03T08:18:25.044Z,92.43
2023-03-03T08:20:55.451Z,94.18
2023-03-03T08:23:23.454Z,93.88
2023-03-03T08:25:52.469Z,94.35
2023-03-03T08:28:21.191Z,92.36
2023-03-03T08:30:49.179Z,92.83
2023-03-03T08:33:17.572Z,91.99
2023-03-03T08:35:46.735Z,91.62
2023-03-03T08:38:16.307Z,90.92
2023-03-03T08:40:44.583Z,89.30
2023-03-03T08:43:16.949Z,90.58
2023-03-03T08:45:45.979Z,91.55
2023-03-03T08:48:13.965Z,91.59
2023-03-03T08:50:42.089Z,92.09
2023-03-03T08:53:11.532Z,92.41
2023-03-03T08:55:39.189Z,93.55
2023-03-03T08:58:07.190Z,90.47
2023-03-03T09:00:35.542Z,90.71
2023-03-03T09:03:03.547Z,92.10
2023-03-03T09:05:31.778Z,89.70
2023-03-03T09:07:59.380Z,88.98
2023-03-03T09:10:31.817Z,88.80
2023-03-03T09:13:03.552Z,89.88
2023-03-03T09:15:33.545Z,90.49
2023-03-03T09:18:11.637Z,91.04
2023-03-03T09:20:41.392Z,92.92
2023-03-03T09:23:29.893Z,87.79
2023-03-03T09:26:00.114Z,85.53
2023-03-03T09:28:30.014Z,85.89
2023-03-03T09:31:00.527Z,82.12
2023-03-03T09:33:33.404Z,78.13
2023-03-03T09:36:07.034Z,79.24
2023-03-03T09:38:35.485Z,73.60
2023-03-03T09:41:33.063Z,77.07
2023-03-03T09:44:17.541Z,73.51
2023-03-03T09:46:57.884Z,64.74
2023-03-03T09:49:33.135Z,76.28
2023-03-03T09:52:23.674Z,79.69
2023-03-03T09:55:02.118Z,83.13
2023-03-03T09:58:04.450Z,84.86
2023-03-03T10:00:52.094Z,82.79
2023-03-03T10:03:54.695Z,81.34
2023-03-03T10:06:28.938Z,83.35
2023-03-03T10:09:10.062Z,85.63
2023-03-03T10:11:42.875Z,84.40
2023-03-03T10:14:30.615Z,81.43
2023-03-03T10:17:15.941Z,81.98
2023-03-03T10:19:58.353Z,86.27
2023-03-03T10:22:35.926Z,84.67
2023-03-03T10:25:15.068Z,83.28
2023-03-03T10:27:54.470Z,81.78
2023-03-03T10:30:39.867Z,82.03
2023-03-03T10:33:22.580Z,85.54
2023-03-03T10:36:18.892Z,84.02
2023-03-03T10:38:56.337Z,83.39
2023-03-03T10:41:44.636Z,82.53
2023-03-03T10:44:33.251Z,82.31
2023-03-03T10:47:22.510Z,81.93
2023-03-03T10:50:02.509Z,78.50
2023-03-03T10:52:38.785Z,80.54
2023-03-03T10:55:39.722Z,83.95
2023-03-03T10:58:20.517Z,87.40
2023-03-03T11:00:53.444Z,86.44
2023-03-03T11:03:50.866Z,90.63
2023-03-03T11:06:23.270Z,89.47
2023-03-03T11:08:54.837Z,88.40
2023-03-03T11:11:33.669Z,86.80
2023-03-03T11:14:07.264Z,84.82
2023-03-03T11:16:43.068Z,86.22
2023-03-03T11:19:30.162Z,88.39
2023-03-03T11:22:08.381Z,87.30
2023-03-03T11:24:51.107Z,86.21
2023-03-03T11:27:34.577Z,85.82
2023-03-03T11:30:17.795Z,81.90
2023-03-03T11:32:52.764Z,84.00
2023-03-03T11:35:26.046Z,84.65
2023-03-03T11:38:13.638Z,84.97
2023-03-03T11:40:48.539Z,86.68
2023-03-03T11:43:35.699Z,82.77
2023-03-03T11:46:08.844Z,83.76
2023-03-03T11:48:44.735Z,82.03
2023-03-03T11:51:16.864Z,84.11
2023-03-03T11:53:58.326Z,86.79
2023-03-03T11:56:28.964Z,83.76
2023-03-03T11:59:08.515Z,84.85
2023-03-03T12:01:43.713Z,85.63
2023-03-03T12:04:16.830Z,84.65
2023-03-03T12:07:12.862Z,86.31
2023-03-03T12:09:54.063Z,84.53
2023-03-03T12:12:24.892Z,84.13
2023-03-03T12:15:05.523Z,85.52
2023-03-03T12:17:52.075Z,83.91
2023-03-03T12:20:26.694Z,82.57
2023-03-03T12:23:08.966Z,80.33
2023-03-03T12:25:40.975Z,82.02
2023-03-03T12:28:12.838Z,82.53
2023-03-03T12:31:10.910Z,82.28
2023-03-03T12:33:53.031Z,79.89
2023-03-03T12:36:37.862Z,80.24
2023-03-03T12:39:13.533Z,82.15
2023-03-03T12:41:47.773Z,82.77
2023-03-03T12:44:21.966Z,84.47
2023-03-03T12:47:01.880Z,83.19
2023-03-03T12:49:43.443Z,81.14
2023-03-03T12:52:24.197Z,78.90
2023-03-03T12:55:05.014Z,78.33
2023-03-03T12:57:40.263Z,78.43
2023-03-03T13:00:28.744Z,78.44
2023-03-03T13:03:05.187Z,77.81
2023-03-03T13:05:45.910Z,79.12
2023-03-03T13:08:43.405Z,76.40
2023-03-03T13:11:28.530Z,77.14
2023-03-03T13:14:05.268Z,79.71
2023-03-03T13:16:41.587Z,79.36
2023-03-03T13:19:12.382Z,83.39
2023-03-03T13:21:47.148Z,82.25
2023-03-03T13:24:21.879Z,84.77
2023-03-03T13:26:55.402Z,83.55
2023-03-03T13:29:28.275Z,87.39
2023-03-03T13:31:58.108Z,85.50
2023-03-03T13:34:39.002Z,84.41
2023-03-03T13:37:13.472Z,84.13
2023-03-03T13:39:50.867Z,85.81
2023-03-03T13:42:25.529Z,83.67
2023-03-03T13:44:53.892Z,81.56
2023-03-03T13:47:29.729Z,80.34
2023-03-03T13:50:20.960Z,82.44
2023-03-03T13:53:02.340Z,79.82
2023-03-03T13:55:34.819Z,79.38
2023-03-03T13:58:13.208Z,79.43
2023-03-03T14:00:52.696Z,80.48
2023-03-03T14:03:52.512Z,84.13
2023-03-03T14:06:22.706Z,83.38
2023-03-03T14:09:23.542Z,83.56
2023-03-03T14:11:58.127Z,84.03
2023-03-03T14:14:38.922Z,84.64
2023-03-03T14:17:14.674Z,86.15
2023-03-03T14:19:45.717Z,83.59
2023-03-03T14:22:23.668Z,85.73
2023-03-03T14:25:00.507Z,85.67
2023-03-03T14:27:34.389Z,86.11
2023-03-03T14:30:26.975Z,86.60
2023-03-03T14:33:03.603Z,87.79
2023-03-03T14:35:34.383Z,86.10
2023-03-03T14:38:03.745Z,84.29
2023-03-03T14:40:33.447Z,86.17
2023-03-03T14:43:02.306Z,84.45
2023-03-03T14:45:40.781Z,84.53
2023-03-03T14:48:16.346Z,83.30
2023-03-03T14:50:49.852Z,81.14
2023-03-03T14:53:23.964Z,82.99
2023-03-03T14:55:53.346Z,85.06
2023-03-03T14:58:36.139Z,82.74
2023-03-03T15:01:16.595Z,80.64
2023-03-03T15:03:52.509Z,80.22
2023-03-03T15:06:32.760Z,81.39
2023-03-03T15:09:22.785Z,80.65
2023-03-03T15:11:53.259Z,80.92
2023-03-03T15:14:23.770Z,81.20
2023-03-03T15:16:52.827Z,79.86
2023-03-03T15:19:38.663Z,77.53
2023-03-03T15:22:16.047Z,80.06
2023-03-03T15:24:51.049Z,78.83
2023-03-03T15:27:25.776Z,80.42
2023-03-03T15:30:05.050Z,79.97
2023-03-03T15:32:43.348Z,77.40
2023-03-03T15:35:26.011Z,76.05
2023-03-03T15:37:59.600Z,77.81
2023-03-03T15:40:30.381Z,77.09
2023-03-03T15:43:10.348Z,79.00
2023-03-03T15:45:46.079Z,77.06
2023-03-03T15:48:34.974Z,76.72
2023-03-03T15:51:11.042Z,78.66
2023-03-03T15:54:02.455Z,76.17
2023-03-03T15:56:38.132Z,76.86
2023-03-03T15:59:30.686Z,76.77
2023-03-03T16:02:09.230Z,76.90
2023-03-03T16:04:45.054Z,76.34
2023-03-03T16:07:24.458Z,76.37
2023-03-03T16:10:00.839Z,77.03
2023-03-03T16:12:40.574Z,75.24
2023-03-03T16:15:22.940Z,75.00
2023-03-03T16:17:58.878Z,73.63
2023-03-03T16:20:34.283Z,75.88
2023-03-03T16:23:28.407Z,74.66
2023-03-03T16:26:05.501Z,76.39
2023-03-03T16:28:44.405Z,74.87
2023-03-03T16:31:18.148Z,76.03
2023-03-03T16:33:56.892Z,76.86
2023-03-03T16:36:33.210Z,75.41
2023-03-03T16:39:06.139Z,76.58
2023-03-03T16:41:44.227Z,76.06
2023-03-03T16:44:31.207Z,77.56
2023-03-03T16:47:11.854Z,77.21
2023-03-03T16:49:49.822Z,77.16
2023-03-03T16:52:25.476Z,78.16
2023-03-03T16:54:58.212Z,76.75
2023-03-03T16:57:34.098Z,76.47
2023-03-03T17:00:08.954Z,77.17
2023-03-03T17:02:50.065Z,77.50
2023-03-03T17:05:27.311Z,79.13
2023-03-03T17:08:08.528Z,80.54
2023-03-03T17:10:43.029Z,79.01
2023-03-03T17:13:30.051Z,80.69
2023-03-03T17:16:14.223Z,81.38
2023-03-03T17:18:53.524Z,81.81
2023-03-03T17:21:28.898Z,82.58
2023-03-03T17:24:07.257Z,81.64
2023-03-03T17:26:51.354Z,80.13
2023-03-03T17:29:46.672Z,81.49
2023-03-03T17:32:28.898Z,80.40
2023-03-03T17:35:15.483Z,79.50
2023-03-03T17:37:51.299Z,80.22
2023-03-03T17:40:36.939Z,79.06
2023-03-03T17:43:10.206Z,78.86
2023-03-03T17:45:42.283Z,81.04
2023-03-03T17:48:53.927Z,80.01
2023-03-03T17:51:37.297Z,79.13
2023-03-03T17:54:29.092Z,78.54
2023-03-03T17:57:15.111Z,79.63
2023-03-03T17:59:56.919Z,79.38
2023-03-03T18:02:46.426Z,79.61
2023-03-03T18:05:46.385Z,77.78
2023-03-03T18:08:28.956Z,81.34
2023-03-03T18:11:11.425Z,78.57
2023-03-03T18:14:04.616Z,81.06
2023-03-03T18:16:47.769Z,80.38
2023-03-03T18:19:46.533Z,78.36
2023-03-03T18:22:19.570Z,78.68
2023-03-03T18:24:56.981Z,78.33
2023-03-03T18:27:34.293Z,81.24
2023-03-03T18:30:25.161Z,78.33
2023-03-03T18:33:12.708Z,80.08
2023-03-03T18:35:44.099Z,79.96
2023-03-03T18:38:30.287Z,79.56
2023-03-03T18:40:59.920Z,78.49
2023-03-03T18:43:52.102Z,78.09
2023-03-03T18:46:50.376Z,78.88
2023-03-03T18:49:18.477Z,79.20
2023-03-03T18:51:53.416Z,79.73
2023-03-03T18:54:31.287Z,79.66
2023-03-03T18:57:17.723Z,79.42
2023-03-03T19:00:10.763Z,79.00
2023-03-03T19:02:49.673Z,80.63
2023-03-03T19:05:24.295Z,79.60
2023-03-03T19:07:57.542Z,78.25
2023-03-03T19:10:48.893Z,80.35
2023-03-03T19:13:53.057Z,79.44
2023-03-03T19:16:36.864Z,80.04
2023-03-03T19:19:14.961Z,79.97
2023-03-03T19:21:43.792Z,80.59
2023-03-03T19:24:34.569Z,78.58
2023-03-03T19:27:16.252Z,79.73
2023-03-03T19:30:22.822Z,79.53
2023-03-03T19:33:10.020Z,80.31
2023-03-03T19:35:54.595Z,78.91
2023-03-03T19:38:32.301Z,79.01
2023-03-03T19:41:08.954Z,78.23
2023-03-03T19:43:47.062Z,79.01
2023-03-03T19:46:41.405Z,80.75
2023-03-03T19:49:18.209Z,80.65
2023-03-03T19:51:53.427Z,79.72
2023-03-03T19:54:37.332Z,81.20
2023-03-03T19:57:12.321Z,79.37
2023-03-03T19:59:46.528Z,79.66
2023-03-03T20:02:31.525Z,80.58
2023-03-03T20:05:08.099Z,78.71
2023-03-03T20:07:45.320Z,80.41
2023-03-03T20:10:32.839Z,78.48
2023-03-03T20:13:12.075Z,78.18
2023-03-03T20:15:48.333Z,80.18
2023-03-03T20:18:35.000Z,78.30
2023-03-03T20:21:09.059Z,79.47
2023-03-03T20:23:51.023Z,78.75
2023-03-03T20:26:27.209Z,79.98
2023-03-03T20:29:15.785Z,79.67
2023-03-03T20:31:50.972Z,81.07
2023-03-03T20:34:28.599Z,81.23
2023-03-03T20:37:01.435Z,80.83
2023-03-03T20:39:41.440Z,81.23
2023-03-03T20:42:19.243Z,80.34
2023-03-03T20:45:01.771Z,80.11
2023-03-03T20:47:39.241Z,79.83
2023-03-03T20:50:16.810Z,78.23
2023-03-03T20:52:55.812Z,80.10
2023-03-03T20:55:35.005Z,80.09
2023-03-03T20:58:08.430Z,80.69
2023-03-03T21:00:44.365Z,78.58
2023-03-03T21:03:19.407Z,76.61
2023-03-03T21:05:58.926Z,78.09
2023-03-03T21:08:48.385Z,78.69
2023-03-03T21:11:19.079Z,79.22
2023-03-03T21:13:48.062Z,77.99
2023-03-03T21:16:31.213Z,80.55
2023-03-03T21:19:00.200Z,79.86
2023-03-03T21:21:30.045Z,79.18
2023-03-03T21:23:59.074Z,80.59
2023-03-03T21:26:51.871Z,79.71
2023-03-03T21:29:21.104Z,79.16
2023-03-03T21:31:49.994Z,79.88
2023-03-03T21:34:25.793Z,79.81
2023-03-03T21:36:54.131Z,79.59
2023-03-03T21:39:24.972Z,78.80
2023-03-03T21:41:56.281Z,79.11
2023-03-03T21:44:41.490Z,78.17
2023-03-03T21:47:10.686Z,79.62
2023-03-03T21:49:42.461Z,78.89
2023-03-03T21:52:10.400Z,77.78
2023-03-03T21:54:37.888Z,78.79
2023-03-03T21:57:06.690Z,77.46
2023-03-03T21:59:34.163Z,77.38
2023-03-03T22:02:01.729Z,88.88
2023-03-03T22:04:29.656Z,89.65
2023-03-03T22:06:57.553Z,81.06
2023-03-03T22:09:25.035Z,73.37
2023-03-03T22:11:52.505Z,76.60
2023-03-03T22:14:21.306Z,72.98
2023-03-03T22:16:48.740Z,78.02
2023-03-03T22:19:16.356Z,75.17
2023-03-03T22:21:43.797Z,71.36
2023-03-03T22:24:11.255Z,70.99
2023-03-03T22:26:38.719Z,68.82
2023-03-03T22:29:06.600Z,69.53
2023-03-03T22:31:35.589Z,64.93
2023-03-03T22:34:03.271Z,66.85
2023-03-03T22:36:31.265Z,67.89
2023-03-03T22:38:58.947Z,69.96
2023-03-03T22:41:26.464Z,68.90
2023-03-03T22:43:53.888Z,67.16
2023-03-03T22:46:21.426Z,65.33
2023-03-03T22:48:50.371Z,65.49
2023-03-03T22:51:21.987Z,66.92
2023-03-03T22:53:49.535Z,67.42
2023-03-03T22:56:16.964Z,69.98
2023-03-03T22:58:44.411Z,73.96
2023-03-03T23:01:11.905Z,73.54
2023-03-03T23:03:39.474Z,74.48
2023-03-03T23:06:08.680Z,75.11
2023-03-03T23:08:36.097Z,74.54
2023-03-03T23:11:03.774Z,75.00
2023-03-03T23:13:31.782Z,76.95
2023-03-03T23:16:00.321Z,76.78
2023-03-03T23:18:28.411Z,77.14
2023-03-03T23:20:56.179Z,76.61
2023-03-03T23:23:25.312Z,77.76
2023-03-03T23:25:52.761Z,76.90
2023-03-03T23:28:20.238Z,77.23
2023-03-03T23:30:47.654Z,78.73
2023-03-03T23:33:15.274Z,79.91
2023-03-03T23:35:45.127Z,82.13
2023-03-03T23:38:15.430Z,81.82
2023-03-03T23:40:46.576Z,80.99
2023-03-03T23:43:14.123Z,83.13
2023-03-03T23:45:41.766Z,83.65
2023-03-03T23:48:09.759Z,82.28
2023-03-03T23:50:38.013Z,81.57
2023-03-03T23:53:05.607Z,79.13
2023-03-03T23:55:33.107Z,79.76
2023-03-03T23:58:01.985Z,81.61
